createdAt,value
2022-09-06T00:04:14.609Z,0
2022-09-06T00:09:38.346Z,0
2022-09-06T00:15:00.661Z,0
2022-09-06T00:20:23.037Z,0
2022-09-06T00:25:45.472Z,0
2022-09-06T00:31:08.207Z,0
2022-09-06T00:36:31.117Z,0
2022-09-06T00:41:53.408Z,0
2022-09-06T00:47:15.851Z,0
2022-09-06T00:52:38.625Z,0
2022-09-06T00:58:03.822Z,0
2022-09-06T01:03:26.572Z,0
2022-09-06T01:08:49.468Z,0
2022-09-06T01:14:12.214Z,0
2022-09-06T01:19:34.788Z,0
2022-09-06T01:24:57.214Z,0
2022-09-06T01:30:19.770Z,0
2022-09-06T01:41:04.529Z,0
2022-09-06T01:46:38.793Z,0
2022-09-06T01:52:01.908Z,0
2022-09-06T01:57:24.170Z,0
2022-09-06T02:02:46.836Z,0
2022-09-06T02:08:13.495Z,0
2022-09-06T02:13:35.930Z,0
2022-09-06T02:18:58.531Z,0
2022-09-06T02:24:21.013Z,0
2022-09-06T02:29:43.362Z,0
2022-09-06T02:35:05.722Z,0
2022-09-06T02:40:39.333Z,0
2022-09-06T02:46:01.826Z,0
2022-09-06T02:51:24.671Z,0
2022-09-06T02:56:50.246Z,0
2022-09-06T03:02:15.158Z,0
2022-09-06T03:07:37.880Z,0
2022-09-06T03:13:02.981Z,0
2022-09-06T03:18:25.551Z,0
2022-09-06T03:23:48.626Z,0
2022-09-06T03:29:13.484Z,0
2022-09-06T03:34:35.826Z,0
2022-09-06T03:39:59.330Z,0
2022-09-06T03:45:22.184Z,0
2022-09-06T03:50:44.986Z,0
2022-09-06T03:56:07.634Z,0
2022-09-06T04:01:30.899Z,0
2022-09-06T04:06:53.801Z,0
2022-09-06T04:12:16.369Z,0
2022-09-06T04:17:38.814Z,0
2022-09-06T04:23:01.224Z,0
2022-09-06T04:28:23.458Z,0
2022-09-06T04:33:46.248Z,0
2022-09-06T04:39:11.615Z,0
2022-09-06T04:44:39.508Z,0
2022-09-06T04:50:19.674Z,0
2022-09-06T04:55:42.086Z,0
2022-09-06T05:01:04.541Z,0
2022-09-06T05:06:27.183Z,0.1
2022-09-06T05:11:49.578Z,0.1
2022-09-06T05:17:12.113Z,0.1
2022-09-06T05:22:34.623Z,0.1
2022-09-06T05:27:57.108Z,0.1
2022-09-06T05:33:19.928Z,0.1
2022-09-06T05:38:42.622Z,0.1
2022-09-06T05:44:07.322Z,0.2
2022-09-06T05:49:30.089Z,0.3
2022-09-06T05:54:52.954Z,0.4
2022-09-06T06:00:16.299Z,0.4
2022-09-06T06:05:45.369Z,0.4
2022-09-06T06:11:08.435Z,0.4
2022-09-06T06:16:39.500Z,0.4
2022-09-06T06:22:02.462Z,0.4
2022-09-06T06:27:25.557Z,0.5
2022-09-06T06:32:51.504Z,0.5
2022-09-06T06:38:14.158Z,0.5
2022-09-06T06:43:46.065Z,0.5
2022-09-06T06:49:08.662Z,0.5
2022-09-06T06:54:31.341Z,0.5
2022-09-06T06:59:56.540Z,0.5
2022-09-06T07:11:42.659Z,0.6
2022-09-06T07:17:08.769Z,1.4
2022-09-06T07:22:32.696Z,0.6
2022-09-06T07:28:00.647Z,0.9
2022-09-06T07:33:28.849Z,2.3
2022-09-06T07:38:54.087Z,2.1
2022-09-06T07:44:25.370Z,1
2022-09-06T07:56:14.237Z,2
2022-09-06T08:01:40.447Z,4.5
2022-09-06T08:13:01.254Z,4.3
2022-09-06T08:18:24.069Z,4.2
2022-09-06T08:23:46.884Z,4.7
2022-09-06T08:29:12.300Z,4.7
2022-09-06T08:34:35.275Z,4.2
2022-09-06T08:45:04.165Z,4.2
2022-09-06T08:50:27.291Z,5
2022-09-06T08:55:50.180Z,5
2022-09-06T09:01:13.029Z,5.6
2022-09-06T09:06:39.421Z,5.1
2022-09-06T09:12:05.256Z,4.8
2022-09-06T09:17:28.081Z,5.1
2022-09-06T09:22:50.799Z,5.8
2022-09-06T09:28:13.347Z,3.8
2022-09-06T09:33:38.828Z,4.9
2022-09-06T09:39:01.859Z,5.5
2022-09-06T09:44:24.804Z,6
2022-09-06T09:49:47.496Z,5.5
2022-09-06T09:55:10.297Z,6.2
2022-09-06T10:05:35.594Z,5.9
2022-09-06T10:10:58.282Z,5.5
2022-09-06T10:16:20.936Z,5.9
2022-09-06T10:21:44.346Z,6.1
2022-09-06T10:27:10.303Z,6.5
2022-09-06T10:32:32.766Z,6
2022-09-06T10:37:57.683Z,6.5
2022-09-06T10:43:20.319Z,4.9
2022-09-06T10:48:42.646Z,6.2
2022-09-06T10:54:05.153Z,6.4
2022-09-06T11:11:01.167Z,5.2
2022-09-06T11:16:23.655Z,6.4
2022-09-06T11:21:46.637Z,5.6
2022-09-06T11:27:16.929Z,7.2
2022-09-06T11:32:40.551Z,5.5
2022-09-06T11:38:03.399Z,6.7
2022-09-06T11:43:27.513Z,6.3
2022-09-06T11:49:27.976Z,5.7
2022-09-06T11:57:37.901Z,7.5
2022-09-06T12:09:30.412Z,6.5
2022-09-06T12:14:52.737Z,6.6
2022-09-06T12:20:17.862Z,7.1
2022-09-06T12:25:43.425Z,6
2022-09-06T12:31:05.749Z,5.9
2022-09-06T12:36:40.811Z,5.3
2022-09-06T12:47:43.084Z,6.2
2022-09-06T12:53:05.772Z,7.2
2022-09-06T13:09:09.938Z,5.9
2022-09-06T13:14:32.379Z,5.5
2022-09-06T13:19:55.077Z,5.9
2022-09-06T13:25:54.735Z,5.2
2022-09-06T13:31:17.169Z,5.6
2022-09-06T13:36:40.224Z,5.4
2022-09-06T13:42:02.725Z,5
2022-09-06T13:47:28.159Z,5
2022-09-06T13:52:50.938Z,4.4
2022-09-06T13:58:14.132Z,4.5
2022-09-06T14:03:36.723Z,4.3
2022-09-06T14:09:07.890Z,4.3
2022-09-06T14:14:32.103Z,4.9
2022-09-06T14:19:54.677Z,4.6
2022-09-06T14:30:49.453Z,4.6
2022-09-06T14:36:12.226Z,4.6
2022-09-06T14:41:35.274Z,4.7
2022-09-06T14:46:57.834Z,4.1
2022-09-06T14:52:20.043Z,4
2022-09-06T14:57:39.921Z,0.4
2022-09-06T15:03:01.385Z,0.3
2022-09-06T15:08:24.065Z,0.3
2022-09-06T15:13:46.166Z,0.3
2022-09-06T15:19:08.530Z,0.3
2022-09-06T15:24:31.085Z,0.3
2022-09-06T15:29:53.367Z,0.3
2022-09-06T15:35:15.962Z,0.3
2022-09-06T15:40:38.591Z,0.3
2022-09-06T15:46:01.121Z,0.3
2022-09-06T15:51:23.827Z,0.3
2022-09-06T15:56:46.140Z,0.3
2022-09-06T16:02:08.786Z,0.5
2022-09-06T16:07:32.152Z,0.6
2022-09-06T16:12:54.921Z,0.6
2022-09-06T16:18:17.500Z,0.6
2022-09-06T16:23:40.066Z,0.6
2022-09-06T16:29:03.617Z,0.5
2022-09-06T16:34:26.208Z,0.6
2022-09-06T16:39:49.065Z,0.7
2022-09-06T16:45:12.040Z,0.8
2022-09-06T16:50:56.267Z,0.7
2022-09-06T16:56:18.777Z,0.5
2022-09-06T17:01:44.325Z,0.3
2022-09-06T17:07:07.583Z,0.2
2022-09-06T17:12:30.141Z,0.2
2022-09-06T17:17:53.000Z,0.3
2022-09-06T17:23:19.613Z,0.3
2022-09-06T17:28:45.627Z,0.2
2022-09-06T17:34:08.605Z,0.2
2022-09-06T17:39:31.216Z,0.1
2022-09-06T17:44:54.179Z,0.1
2022-09-06T17:50:16.828Z,0.1
2022-09-06T17:55:42.345Z,0.1
2022-09-06T18:01:08.573Z,0.1
2022-09-06T18:06:31.473Z,0
2022-09-06T18:11:57.183Z,0
2022-09-06T18:17:19.783Z,0
2022-09-06T18:22:45.666Z,0
2022-09-06T18:28:08.029Z,0
2022-09-06T18:33:30.793Z,0
2022-09-06T18:38:53.415Z,0
2022-09-06T18:44:16.432Z,0
2022-09-06T18:49:43.375Z,0
2022-09-06T18:55:10.211Z,0
2022-09-06T19:00:32.317Z,0
2022-09-06T19:05:55.270Z,0
2022-09-06T19:11:17.695Z,0
2022-09-06T19:16:40.021Z,0
2022-09-06T19:27:26.206Z,0
2022-09-06T19:32:48.673Z,0
2022-09-06T19:38:10.982Z,0
2022-09-06T19:43:33.817Z,0
2022-09-06T19:49:04.490Z,0
2022-09-06T19:54:31.339Z,0
2022-09-06T20:05:05.813Z,0
2022-09-06T20:10:28.760Z,0
2022-09-06T20:15:51.288Z,0
2022-09-06T20:21:14.236Z,0
2022-09-06T20:26:39.233Z,0
2022-09-06T20:32:01.863Z,0
2022-09-06T20:52:38.224Z,0
2022-09-06T20:58:01.113Z,0
2022-09-06T21:08:32.811Z,0
2022-09-06T21:14:04.681Z,0
2022-09-06T21:19:27.387Z,0
2022-09-06T21:24:50.201Z,0
2022-09-06T21:30:12.599Z,0
2022-09-06T21:35:35.132Z,0
2022-09-06T21:40:57.742Z,0
2022-09-06T21:46:20.156Z,0
2022-09-06T21:51:42.867Z,0
2022-09-06T21:57:04.825Z,0
2022-09-06T22:02:28.351Z,0
2022-09-06T22:07:51.307Z,0
2022-09-06T22:13:14.111Z,0
2022-09-06T22:18:36.613Z,0
2022-09-06T22:23:59.170Z,0
2022-09-06T22:29:21.544Z,0
2022-09-06T22:34:45.102Z,0
2022-09-06T22:40:07.664Z,0
2022-09-06T22:51:14.660Z,0
2022-09-06T22:56:37.342Z,0
2022-09-06T23:02:04.380Z,0
2022-09-06T23:07:26.908Z,0
2022-09-06T23:12:49.352Z,0
2022-09-06T23:18:12.400Z,0
2022-09-06T23:23:35.107Z,0
2022-09-06T23:34:20.494Z,0
2022-09-06T23:39:46.398Z,0
2022-09-06T23:45:09.217Z,0
2022-09-06T23:50:31.808Z,0
2022-09-06T23:56:03.812Z,0
